Accueil
METAR-TAF:

METAR-TAF

Aéroports :

Aérodrome de Londres Biggin Hill

Londres Biggin Hill, Angleterre

latitude: 51-19N, longitude: 000-02E, altitude: 183 m

Observation

Le bulletin a été fait il y a 34 minutes, à 18:20 UTC
Vent 4 kt de est
Température 6°C
Humidité 75%
Pression 1040 hPa
Visibilité 10 km ou plus
pas de nuages en-dessous de 1500 mètres et pas de cumulonimbus.

METAR: EGKB 271820Z 09004KT CAVOK 06/02 Q1040

Heure: 18:54 (18:54 UTC)

Prévision

Le bulletin a été fait il y a 1 heure et 56 minutes, à 16:58 UTC
Prévision valable du 27 à 18 UTC au 27 à 22 UTC
Vent 7 kt de est/nord-est
Visibilité 10 km ou plus
Quelques nuages à une hauteur de 3000 ft

TAF: EGKB 271658Z 2718/2722 06007KT 9999 FEW030

Observations et prévisions météorologiques de plus de 4000 aéroports (messages METAR et TAF).

Les stations disponibles sont représentées par des disques jaunes et rouges sur la carte.

Passer la souris dessus pour voir le nom de la station.

Cliquer dessus pour voir les observations et prévisions météorologiques.

Pour changer de carte: cliquez sur les boutons verts avec une croix noire pour zoomer, sur le bouton vert avec un tiret pour effectuer un zoom arrière, ou sur les flèches vertes pour les cartes adjacentes.


METAR-TAF: